Tilton, NH

9:11 PM EST on January 27, 2015 (GMT -0500)
Silver Lake at Tilton New Hampshire | Change Station
CLOSE
Current Station
Personal Weather Station
Location: Tilton,, NH
Elevation: 527 ft
Nearby Weather Stations
Active Advisory: Winter Storm Warning Active Notice: Public Information Statement

Elev 527 ft 43.47 °N, 71.54 °W | Updated 1 second ago

Snow
Snow
8.5 °F
Feels Like 2 °F
N
3.5
Wind Variable Wind from WNW
Gusts 3.8 mph

Today
High -- | Low -- °F
--% Chance of Precip.
Yesterday
High -- | Low -- °F
Precip. -- in
7:07 AM 4:50 PM
First Quarter, 60% visible
Pressure 29.63 in
Visibility 2.5 miles
Clouds Overcast 1200 ft
Windchill 2 °F
Dew Point -0 °F
Humidity 66%
Rainfall 0.00 in
Snow Depth Not available.
UV 0 out of 12
Pollen .10 out of 12
Air Quality Not available.
Flu Activity Not available.
METAR KLCI 280155Z AUTO 30009KT 2 1/2SM OVC012 M12/M15 A2963 RMK AO1

More Conditions Fewer Conditions

Pressure 29.63 in
Visibility 2.5 miles
Clouds Overcast 1200 ft
Windchill 2 °F
Dew Point -0 °F
Humidity 66%
Rainfall 0.00 in
Snow Depth Not available.
UV 0 out of 12
Pollen .10 out of 12
Air Quality Not available.
Flu Activity Not available.
METAR KLCI 280155Z AUTO 30009KT 2 1/2SM OVC012 M12/M15 A2963 RMK AO1

More Conditions Fewer Conditions

10-Day Weather Forecast

Almanac

Astronomy

Jan. 27, 2015 Rise Set
Actual Time
Civil Twilight
Nautical Twilight
Astronomical Twilight
Moon
Length of Visible Light
Length of Day
Tomorrow will be .
, % of the Moon is Illuminated

Today's Extremes

State Highs State Lows

Community

WunderPhotos

Upload Photos

1,791,048 photos uploaded!

WunderBlogs® & News

Nearby

Air Quality

  Air Quality AQ Index Pollutant
Not available.

Snow Depth

Station Depth Elevation

Earthquake Activity

City Distance Mag. Time & Date
Minimum magnitude displayed is 2.5.

Coastal Water Temperatures

Place Temperature

Nearby Weather Stations